createdAt,value
2022-08-24T00:00:15.948Z,16.77
2022-08-24T00:02:42.515Z,16.73
2022-08-24T00:05:14.009Z,16.71
2022-08-24T00:07:41.487Z,16.64
2022-08-24T00:10:09.457Z,16.61
2022-08-24T00:12:35.954Z,16.62
2022-08-24T00:15:02.561Z,16.63
2022-08-24T00:17:29.019Z,16.58
2022-08-24T00:19:55.461Z,16.52
2022-08-24T00:22:22.358Z,16.46
2022-08-24T00:24:48.788Z,16.41
2022-08-24T00:27:15.186Z,16.40
2022-08-24T00:29:41.692Z,16.35
2022-08-24T00:32:08.248Z,16.32
2022-08-24T00:34:35.803Z,16.28
2022-08-24T00:37:02.300Z,16.22
2022-08-24T00:39:29.097Z,16.17
2022-08-24T00:41:55.550Z,16.14
2022-08-24T00:44:22.720Z,16.12
2022-08-24T00:46:49.181Z,16.08
2022-08-24T00:49:21.692Z,16.02
2022-08-24T00:52:14.302Z,16.01
2022-08-24T00:54:46.414Z,15.96
2022-08-24T00:57:14.742Z,15.95
2022-08-24T00:59:46.950Z,15.95
2022-08-24T01:02:17.333Z,15.92
2022-08-24T01:04:52.721Z,15.86
2022-08-24T01:07:20.893Z,15.80
2022-08-24T01:09:47.389Z,15.77
2022-08-24T01:12:14.052Z,15.72
2022-08-24T01:14:55.853Z,15.71
2022-08-24T01:17:40.883Z,15.68
2022-08-24T01:20:08.711Z,15.63
2022-08-24T01:22:55.356Z,15.60
2022-08-24T01:25:23.483Z,15.56
2022-08-24T01:27:50.267Z,15.52
2022-08-24T01:30:17.401Z,15.48
2022-08-24T01:32:54.714Z,15.45
2022-08-24T01:35:21.355Z,15.42
2022-08-24T01:37:48.269Z,15.40
2022-08-24T01:40:14.932Z,15.33
2022-08-24T01:42:47.107Z,15.30
2022-08-24T01:45:13.717Z,15.28
2022-08-24T01:47:40.172Z,15.25
2022-08-24T01:50:07.104Z,15.21
2022-08-24T01:53:01.608Z,15.17
2022-08-24T01:55:22.729Z,15.14
2022-08-24T01:57:49.372Z,15.13
2022-08-24T02:00:16.142Z,15.10
2022-08-24T02:02:44.002Z,15.08
2022-08-24T02:05:12.176Z,15.06
2022-08-24T02:07:38.684Z,15.04
2022-08-24T02:10:07.235Z,15.04
2022-08-24T02:12:35.003Z,15.00
2022-08-24T02:15:02.764Z,14.94
2022-08-24T02:17:29.715Z,14.90
2022-08-24T02:19:56.181Z,14.89
2022-08-24T02:22:22.612Z,14.83
2022-08-24T02:24:49.087Z,14.82
2022-08-24T02:27:16.418Z,14.80
2022-08-24T02:29:43.455Z,14.77
2022-08-24T02:32:10.929Z,14.73
2022-08-24T02:34:37.447Z,14.69
2022-08-24T02:37:04.020Z,14.66
2022-08-24T02:39:30.527Z,14.64
2022-08-24T02:41:57.298Z,14.61
2022-08-24T02:44:23.797Z,14.58
2022-08-24T02:46:50.520Z,14.53
2022-08-24T02:49:17.022Z,14.49
2022-08-24T02:51:45.425Z,14.47
2022-08-24T02:54:12.959Z,14.47
2022-08-24T02:56:39.777Z,14.41
2022-08-24T02:59:06.485Z,14.40
2022-08-24T03:01:32.997Z,14.37
2022-08-24T03:03:59.550Z,14.34
2022-08-24T03:06:26.091Z,14.33
2022-08-24T03:08:56.314Z,14.31
2022-08-24T03:11:27.596Z,14.25
2022-08-24T03:13:55.404Z,14.23
2022-08-24T03:16:21.912Z,14.20
2022-08-24T03:18:48.338Z,14.20
2022-08-24T03:21:15.219Z,14.15
2022-08-24T03:23:41.667Z,14.12
2022-08-24T03:26:08.149Z,14.11
2022-08-24T03:28:34.600Z,14.10
2022-08-24T03:31:01.161Z,14.06
2022-08-24T03:33:27.673Z,14.04
2022-08-24T03:35:54.662Z,14.01
2022-08-24T03:38:21.357Z,13.98
2022-08-24T03:40:48.034Z,13.95
2022-08-24T03:43:34.633Z,13.92
2022-08-24T03:46:02.938Z,13.89
2022-08-24T03:48:30.262Z,13.86
2022-08-24T03:50:56.816Z,13.84
2022-08-24T03:53:23.405Z,13.82
2022-08-24T03:55:49.932Z,13.78
2022-08-24T03:58:17.487Z,13.74
2022-08-24T04:00:44.558Z,13.71
2022-08-24T04:03:11.803Z,13.67
2022-08-24T04:05:39.187Z,13.65
2022-08-24T04:08:06.433Z,13.61
2022-08-24T04:10:33.337Z,13.59
2022-08-24T04:13:02.829Z,13.58
2022-08-24T04:15:31.755Z,13.56
2022-08-24T04:17:58.237Z,13.53
2022-08-24T04:20:25.849Z,13.53
2022-08-24T04:22:53.582Z,13.49
2022-08-24T04:25:24.635Z,13.46
2022-08-24T04:27:51.648Z,13.46
2022-08-24T04:30:18.108Z,13.43
2022-08-24T04:32:44.564Z,13.43
2022-08-24T04:35:11.012Z,13.43
2022-08-24T04:37:38.189Z,13.42
2022-08-24T04:40:05.368Z,13.41
2022-08-24T04:42:32.259Z,13.42
2022-08-24T04:44:59.954Z,13.44
2022-08-24T04:47:26.530Z,13.42
2022-08-24T04:49:52.960Z,13.43
2022-08-24T04:52:19.455Z,13.41
2022-08-24T04:54:45.880Z,13.42
2022-08-24T04:57:17.758Z,13.43
2022-08-24T04:59:44.702Z,13.41
2022-08-24T05:02:11.280Z,13.38
2022-08-24T05:04:37.819Z,13.37
2022-08-24T05:07:04.768Z,13.42
2022-08-24T05:09:31.798Z,13.44
2022-08-24T05:11:58.265Z,13.47
2022-08-24T05:14:28.605Z,13.49
2022-08-24T05:16:55.515Z,13.51
2022-08-24T05:19:23.309Z,13.54
2022-08-24T05:21:49.945Z,13.58
2022-08-24T05:24:16.521Z,13.59
2022-08-24T05:26:43.609Z,13.62
2022-08-24T05:29:10.718Z,13.65
2022-08-24T05:31:37.347Z,13.67
2022-08-24T05:34:04.164Z,13.69
2022-08-24T05:36:32.430Z,13.79
2022-08-24T05:39:00.724Z,13.83
2022-08-24T05:41:27.960Z,13.86
2022-08-24T05:43:54.681Z,13.90
2022-08-24T05:46:21.122Z,13.93
2022-08-24T05:48:52.642Z,13.99
2022-08-24T05:51:20.134Z,14.04
2022-08-24T05:53:46.598Z,14.11
2022-08-24T05:56:14.737Z,14.17
2022-08-24T05:58:41.316Z,14.23
2022-08-24T06:01:18.626Z,14.26
2022-08-24T06:03:45.575Z,14.31
2022-08-24T06:06:12.932Z,14.43
2022-08-24T06:08:41.766Z,14.49
2022-08-24T06:11:08.626Z,14.56
2022-08-24T06:13:35.967Z,14.62
2022-08-24T06:16:27.943Z,14.71
2022-08-24T06:18:54.687Z,14.83
2022-08-24T06:21:22.679Z,14.94
2022-08-24T06:23:51.106Z,15.06
2022-08-24T06:26:36.732Z,15.16
2022-08-24T06:29:03.596Z,15.28
2022-08-24T06:31:39.437Z,15.39
2022-08-24T06:34:09.094Z,15.53
2022-08-24T06:36:35.723Z,15.67
2022-08-24T06:39:02.193Z,15.83
2022-08-24T06:41:28.699Z,15.98
2022-08-24T06:43:55.190Z,16.20
2022-08-24T06:46:25.021Z,16.50
2022-08-24T06:48:54.199Z,16.87
2022-08-24T06:51:22.620Z,17.29
2022-08-24T06:53:50.534Z,17.69
2022-08-24T06:56:17.954Z,18.10
2022-08-24T06:58:45.022Z,18.55
2022-08-24T07:01:16.678Z,18.91
2022-08-24T07:03:45.295Z,19.38
2022-08-24T07:06:12.669Z,19.78
2022-08-24T07:08:39.283Z,20.00
2022-08-24T07:11:06.045Z,20.44
2022-08-24T07:13:33.199Z,20.82
2022-08-24T07:16:00.783Z,21.15
2022-08-24T07:18:27.936Z,21.51
2022-08-24T07:20:54.402Z,21.85
2022-08-24T07:23:21.425Z,22.20
2022-08-24T07:25:50.485Z,22.43
2022-08-24T07:28:18.031Z,22.75
2022-08-24T07:30:58.393Z,23.08
2022-08-24T07:33:24.907Z,23.40
2022-08-24T07:35:51.340Z,23.34
2022-08-24T07:38:22.151Z,23.36
2022-08-24T07:41:09.753Z,23.79
2022-08-24T07:43:35.180Z,24.04
2022-08-24T07:46:06.516Z,24.30
2022-08-24T07:48:33.015Z,24.48
2022-08-24T07:51:06.650Z,24.44
2022-08-24T07:53:52.442Z,24.26
2022-08-24T07:56:19.578Z,24.24
2022-08-24T07:58:46.112Z,24.06
2022-08-24T08:01:12.615Z,24.07
2022-08-24T08:03:39.167Z,24.45
2022-08-24T08:06:10.153Z,24.83
2022-08-24T08:08:41.335Z,25.02
2022-08-24T08:11:08.998Z,25.31
2022-08-24T08:13:37.209Z,25.26
2022-08-24T08:16:07.891Z,25.06
2022-08-24T08:18:35.699Z,25.02
2022-08-24T08:21:03.160Z,24.73
2022-08-24T08:23:48.361Z,25.17
2022-08-24T08:26:16.886Z,25.03
2022-08-24T08:28:43.484Z,24.77
2022-08-24T08:31:10.489Z,24.88
2022-08-24T08:33:38.704Z,24.84
2022-08-24T08:36:10.402Z,24.91
2022-08-24T08:38:37.252Z,24.49
2022-08-24T08:41:13.044Z,24.68
2022-08-24T08:43:48.675Z,24.67
2022-08-24T08:46:24.144Z,24.65
2022-08-24T08:49:10.830Z,24.41
2022-08-24T08:51:56.664Z,24.25
2022-08-24T08:54:43.851Z,24.19
2022-08-24T08:57:32.685Z,24.19
2022-08-24T09:00:22.686Z,24.21
2022-08-24T09:02:56.258Z,24.27
2022-08-24T09:05:34.876Z,24.12
2022-08-24T09:08:11.229Z,24.32
2022-08-24T09:10:51.138Z,24.36
2022-08-24T09:13:35.458Z,24.38
2022-08-24T09:16:10.608Z,24.41
2022-08-24T09:18:49.727Z,24.46
2022-08-24T09:21:35.743Z,24.41
2022-08-24T09:24:18.967Z,24.31
2022-08-24T09:26:45.587Z,24.31
2022-08-24T09:29:32.273Z,24.31
2022-08-24T09:32:13.039Z,24.49
2022-08-24T09:34:43.546Z,24.54
2022-08-24T09:37:09.958Z,24.50
2022-08-24T09:39:45.649Z,24.51
2022-08-24T09:42:21.872Z,24.65
2022-08-24T09:44:48.246Z,24.77
2022-08-24T09:47:17.711Z,24.84
2022-08-24T09:49:56.405Z,24.92
2022-08-24T09:52:29.078Z,24.94
2022-08-24T09:55:02.366Z,24.82
2022-08-24T10:00:30.146Z,24.85
2022-08-24T10:02:59.585Z,25.04
2022-08-24T10:05:44.890Z,25.26
2022-08-24T10:08:30.141Z,25.48
2022-08-24T10:11:14.931Z,25.30
2022-08-24T10:13:44.103Z,25.28
2022-08-24T10:16:30.318Z,25.33
2022-08-24T10:19:00.750Z,25.46
2022-08-24T10:21:39.406Z,25.50
2022-08-24T10:24:29.157Z,25.56
2022-08-24T10:27:03.775Z,25.59
2022-08-24T10:29:30.184Z,25.66
2022-08-24T10:31:59.930Z,25.78
2022-08-24T10:34:51.686Z,26.00
2022-08-24T10:37:37.095Z,25.92
2022-08-24T10:40:14.920Z,26.05
2022-08-24T10:43:07.718Z,26.01
2022-08-24T10:45:52.834Z,26.02
2022-08-24T10:48:33.317Z,26.10
2022-08-24T10:51:19.967Z,26.20
2022-08-24T10:53:51.026Z,26.21
2022-08-24T10:56:19.618Z,26.42
2022-08-24T10:59:00.161Z,26.50
2022-08-24T11:01:32.090Z,26.48
2022-08-24T11:04:00.905Z,26.56
2022-08-24T11:06:32.630Z,26.62
2022-08-24T11:08:59.128Z,26.73
2022-08-24T11:11:27.390Z,26.81
2022-08-24T11:14:02.006Z,26.79
2022-08-24T11:16:36.967Z,26.83
2022-08-24T11:19:06.412Z,27.03
2022-08-24T11:21:41.664Z,27.18
2022-08-24T11:24:11.211Z,27.30
2022-08-24T11:26:56.400Z,27.61
2022-08-24T11:29:27.631Z,27.80
2022-08-24T11:31:54.187Z,27.83
2022-08-24T11:34:31.688Z,27.91
2022-08-24T11:36:58.569Z,28.23
2022-08-24T11:39:35.821Z,28.33
2022-08-24T11:42:02.305Z,28.68
2022-08-24T11:44:34.830Z,28.91
2022-08-24T11:47:20.073Z,28.98
2022-08-24T11:49:50.908Z,29.02
2022-08-24T11:52:23.377Z,29.22
2022-08-24T11:55:00.495Z,29.64
2022-08-24T11:57:35.214Z,29.58
2022-08-24T12:00:12.321Z,29.68
2022-08-24T12:02:59.191Z,29.84
2022-08-24T12:05:25.724Z,30.41
2022-08-24T12:08:17.812Z,30.50
2022-08-24T12:10:51.508Z,30.29
2022-08-24T12:13:29.692Z,30.67
2022-08-24T12:16:02.466Z,30.64
2022-08-24T12:18:29.526Z,30.60
2022-08-24T12:20:57.399Z,30.99
2022-08-24T12:23:26.802Z,31.38
2022-08-24T12:26:04.257Z,31.30
2022-08-24T12:28:41.453Z,31.04
2022-08-24T12:31:12.912Z,31.58
2022-08-24T12:33:44.918Z,31.47
2022-08-24T12:36:23.586Z,31.53
2022-08-24T12:38:55.102Z,31.70
2022-08-24T12:41:28.081Z,31.80
2022-08-24T12:43:59.654Z,32.26
2022-08-24T12:46:26.719Z,32.31
2022-08-24T12:48:56.157Z,32.53
2022-08-24T12:51:28.919Z,32.31
2022-08-24T12:53:58.901Z,32.61
2022-08-24T12:56:28.409Z,32.91
2022-08-24T12:58:59.206Z,32.93
2022-08-24T13:01:33.825Z,33.54
2022-08-24T13:04:05.553Z,33.28
2022-08-24T13:06:40.363Z,33.40
2022-08-24T13:09:26.142Z,33.89
2022-08-24T13:11:52.685Z,34.39
2022-08-24T13:14:26.698Z,33.54
2022-08-24T13:16:53.237Z,33.09
2022-08-24T13:19:28.566Z,33.07
2022-08-24T13:21:58.599Z,32.94
2022-08-24T13:24:28.164Z,33.10
2022-08-24T13:26:58.906Z,32.77
2022-08-24T13:29:28.359Z,33.22
2022-08-24T13:31:56.453Z,33.05
2022-08-24T13:34:37.263Z,32.90
2022-08-24T13:37:14.817Z,32.73
2022-08-24T13:39:54.311Z,32.38
2022-08-24T13:42:21.739Z,32.78
2022-08-24T13:44:50.931Z,32.46
2022-08-24T13:47:36.204Z,32.80
2022-08-24T13:50:10.211Z,32.92
2022-08-24T13:52:55.418Z,32.97
2022-08-24T13:55:22.788Z,33.09
2022-08-24T13:57:52.282Z,32.90
2022-08-24T14:01:01.440Z,33.38
2022-08-24T14:03:46.990Z,33.55
2022-08-24T14:06:24.485Z,32.78
2022-08-24T14:08:59.231Z,33.18
2022-08-24T14:11:25.660Z,33.34
2022-08-24T14:14:04.988Z,32.85
2022-08-24T14:16:56.090Z,33.05
2022-08-24T14:19:41.111Z,32.66
2022-08-24T14:22:17.972Z,32.44
2022-08-24T14:25:02.272Z,32.52
2022-08-24T14:27:35.101Z,32.93
2022-08-24T14:30:30.706Z,32.64
2022-08-24T14:33:00.266Z,32.22
2022-08-24T14:35:27.690Z,31.89
2022-08-24T14:38:13.153Z,32.04
2022-08-24T14:40:54.973Z,32.20
2022-08-24T14:43:30.084Z,31.80
2022-08-24T14:46:03.535Z,31.98
2022-08-24T14:48:55.063Z,32.21
2022-08-24T14:51:37.202Z,32.17
2022-08-24T14:54:09.716Z,32.11
2022-08-24T14:56:42.246Z,32.24
2022-08-24T14:59:24.643Z,32.51
2022-08-24T15:02:13.213Z,32.43
2022-08-24T15:04:52.509Z,32.28
2022-08-24T15:07:24.315Z,31.98
2022-08-24T15:09:51.096Z,31.61
2022-08-24T15:12:27.476Z,31.63
2022-08-24T15:14:58.640Z,31.46
2022-08-24T15:17:36.288Z,31.30
2022-08-24T15:20:06.925Z,31.21
2022-08-24T15:22:44.224Z,31.36
2022-08-24T15:25:15.439Z,31.04
2022-08-24T15:27:50.504Z,30.83
2022-08-24T15:30:22.415Z,30.19
2022-08-24T15:32:53.623Z,30.17
2022-08-24T15:35:30.833Z,30.25
2022-08-24T15:37:57.976Z,30.12
2022-08-24T15:40:32.129Z,30.20
2022-08-24T15:43:00.739Z,30.18
2022-08-24T15:45:28.368Z,30.09
2022-08-24T15:47:56.231Z,30.08
2022-08-24T15:50:22.676Z,30.02
2022-08-24T15:52:52.982Z,29.94
2022-08-24T15:55:34.400Z,29.98
2022-08-24T15:58:13.227Z,29.80
2022-08-24T16:00:58.272Z,29.71
2022-08-24T16:03:44.187Z,29.71
2022-08-24T16:06:25.869Z,29.63
2022-08-24T16:09:11.018Z,29.43
2022-08-24T16:11:40.099Z,29.26
2022-08-24T16:14:11.037Z,29.33
2022-08-24T16:16:43.610Z,29.27
2022-08-24T16:19:39.653Z,29.24
2022-08-24T16:22:12.643Z,29.22
2022-08-24T16:24:40.836Z,29.10
2022-08-24T16:27:08.833Z,29.07
2022-08-24T16:29:38.845Z,28.95
2022-08-24T16:32:10.778Z,28.74
2022-08-24T16:34:55.849Z,28.70
2022-08-24T16:37:23.124Z,28.67
2022-08-24T16:39:49.603Z,28.65
2022-08-24T16:42:24.267Z,28.66
2022-08-24T16:44:51.314Z,28.58
2022-08-24T16:47:17.952Z,28.59
2022-08-24T16:49:44.704Z,28.48
2022-08-24T16:52:11.487Z,28.40
2022-08-24T16:54:38.315Z,28.29
2022-08-24T16:57:24.814Z,28.19
2022-08-24T16:59:52.068Z,28.21
2022-08-24T17:02:19.961Z,28.24
2022-08-24T17:04:46.471Z,28.11
2022-08-24T17:07:15.172Z,27.95
2022-08-24T17:09:43.023Z,27.86
2022-08-24T17:12:09.595Z,27.87
2022-08-24T17:14:40.152Z,27.79
2022-08-24T17:17:07.540Z,27.74
2022-08-24T17:19:33.984Z,27.60
2022-08-24T17:22:00.392Z,27.49
2022-08-24T17:24:27.198Z,27.40
2022-08-24T17:26:54.311Z,27.37
2022-08-24T17:29:20.886Z,27.33
2022-08-24T17:31:49.828Z,27.13
2022-08-24T17:34:17.402Z,27.15
2022-08-24T17:36:44.854Z,27.06
2022-08-24T17:39:11.990Z,27.01
2022-08-24T17:41:38.635Z,26.94
2022-08-24T17:44:06.576Z,26.84
2022-08-24T17:46:33.036Z,26.76
2022-08-24T17:48:59.684Z,26.64
2022-08-24T17:51:26.128Z,26.53
2022-08-24T17:53:52.665Z,26.48
2022-08-24T17:56:19.406Z,26.36
2022-08-24T17:59:05.085Z,26.32
2022-08-24T18:01:31.919Z,26.22
2022-08-24T18:03:58.432Z,26.16
2022-08-24T18:06:27.612Z,26.04
2022-08-24T18:08:56.618Z,25.95
2022-08-24T18:11:26.045Z,25.88
2022-08-24T18:13:54.405Z,25.81
2022-08-24T18:16:22.252Z,25.65
2022-08-24T18:18:50.315Z,25.60
2022-08-24T18:21:16.744Z,25.49
2022-08-24T18:23:43.912Z,25.43
2022-08-24T18:26:11.354Z,25.33
2022-08-24T18:28:38.018Z,25.18
2022-08-24T18:31:09.228Z,25.14
2022-08-24T18:33:35.751Z,25.08
2022-08-24T18:36:02.292Z,25.00
2022-08-24T18:38:28.694Z,24.94
2022-08-24T18:40:55.150Z,24.83
2022-08-24T18:43:24.791Z,24.80
2022-08-24T18:45:52.203Z,24.71
2022-08-24T18:48:19.195Z,24.65
2022-08-24T18:50:45.686Z,24.59
2022-08-24T18:53:13.427Z,24.52
2022-08-24T18:55:40.134Z,24.39
2022-08-24T18:58:06.900Z,24.39
2022-08-24T19:00:33.408Z,24.37
2022-08-24T19:03:02.501Z,24.28
2022-08-24T19:05:29.169Z,24.28
2022-08-24T19:07:57.555Z,24.20
2022-08-24T19:10:28.366Z,24.11
2022-08-24T19:13:00.050Z,24.06
2022-08-24T19:15:35.734Z,23.99
2022-08-24T19:18:06.704Z,23.93
2022-08-24T19:20:33.730Z,23.89
2022-08-24T19:23:05.086Z,23.77
2022-08-24T19:25:32.000Z,23.74
2022-08-24T19:27:58.681Z,23.68
2022-08-24T19:30:27.911Z,23.67
2022-08-24T19:32:55.973Z,23.63
2022-08-24T19:35:22.691Z,23.57
2022-08-24T19:37:49.739Z,23.47
2022-08-24T19:40:16.918Z,23.36
2022-08-24T19:42:43.566Z,23.26
2022-08-24T19:45:31.114Z,23.19
2022-08-24T19:47:57.581Z,23.06
2022-08-24T19:50:28.245Z,22.97
2022-08-24T19:52:57.548Z,22.89
2022-08-24T19:55:24.028Z,22.87
2022-08-24T19:57:54.027Z,22.82
2022-08-24T20:00:22.258Z,22.71
2022-08-24T20:02:49.853Z,22.64
2022-08-24T20:05:17.789Z,22.55
2022-08-24T20:07:44.971Z,22.52
2022-08-24T20:10:12.736Z,22.46
2022-08-24T20:12:39.715Z,22.41
2022-08-24T20:15:06.343Z,22.33
2022-08-24T20:17:32.811Z,22.25
2022-08-24T20:19:59.222Z,22.23
2022-08-24T20:22:25.710Z,22.19
2022-08-24T20:24:53.309Z,22.10
2022-08-24T20:27:22.962Z,22.03
2022-08-24T20:29:49.758Z,21.95
2022-08-24T20:32:16.205Z,21.92
2022-08-24T20:34:42.987Z,21.86
2022-08-24T20:37:09.671Z,21.79
2022-08-24T20:39:36.124Z,21.74
2022-08-24T20:42:02.553Z,21.66
2022-08-24T20:44:29.001Z,21.68
2022-08-24T20:46:55.627Z,21.66
2022-08-24T20:49:24.738Z,21.59
2022-08-24T20:51:51.174Z,21.52
2022-08-24T20:54:17.673Z,21.47
2022-08-24T20:56:44.534Z,21.39
2022-08-24T20:59:12.598Z,21.33
2022-08-24T21:01:40.667Z,21.28
2022-08-24T21:04:07.175Z,21.22
2022-08-24T21:06:34.011Z,21.17
2022-08-24T21:09:00.845Z,21.11
2022-08-24T21:11:27.296Z,21.04
2022-08-24T21:13:53.731Z,20.98
2022-08-24T21:16:20.214Z,20.94
2022-08-24T21:18:49.369Z,20.89
2022-08-24T21:21:15.846Z,20.83
2022-08-24T21:23:42.366Z,20.81
2022-08-24T21:26:11.286Z,20.77
2022-08-24T21:28:39.542Z,20.70
2022-08-24T21:31:06.613Z,20.65
2022-08-24T21:33:51.866Z,20.54
2022-08-24T21:36:18.654Z,20.46
2022-08-24T21:38:45.477Z,20.43
2022-08-24T21:41:11.981Z,20.38
2022-08-24T21:43:38.443Z,20.32
2022-08-24T21:46:05.940Z,20.26
2022-08-24T21:48:32.498Z,20.20
2022-08-24T21:50:58.971Z,20.12
2022-08-24T21:53:28.558Z,20.06
2022-08-24T21:55:55.997Z,19.99
2022-08-24T21:58:24.049Z,19.89
2022-08-24T22:00:51.154Z,19.87
2022-08-24T22:03:17.807Z,19.88
2022-08-24T22:05:44.329Z,19.90
2022-08-24T22:08:10.800Z,19.90
2022-08-24T22:10:37.700Z,19.83
2022-08-24T22:13:04.735Z,19.74
2022-08-24T22:15:33.179Z,19.69
2022-08-24T22:18:00.389Z,19.62
2022-08-24T22:20:26.922Z,19.54
2022-08-24T22:22:53.363Z,19.50
2022-08-24T22:25:19.823Z,19.43
2022-08-24T22:27:46.624Z,19.36
2022-08-24T22:30:14.904Z,19.31
2022-08-24T22:32:41.352Z,19.25
2022-08-24T22:35:08.122Z,19.19
2022-08-24T22:37:34.802Z,19.14
2022-08-24T22:40:02.354Z,19.11
2022-08-24T22:42:30.083Z,19.08
2022-08-24T22:44:58.527Z,19.09
2022-08-24T22:47:24.956Z,19.07
2022-08-24T22:49:51.424Z,19.06
2022-08-24T22:52:18.645Z,19.00
2022-08-24T22:54:45.154Z,18.91
2022-08-24T22:57:11.568Z,18.85
2022-08-24T22:59:40.509Z,18.78
2022-08-24T23:02:11.253Z,18.71
2022-08-24T23:04:40.212Z,18.66
2022-08-24T23:07:07.940Z,18.61
2022-08-24T23:09:44.772Z,18.56
2022-08-24T23:12:13.127Z,18.48
2022-08-24T23:14:39.663Z,18.47
2022-08-24T23:17:06.078Z,18.43
2022-08-24T23:19:51.116Z,18.42
2022-08-24T23:22:18.708Z,18.37
2022-08-24T23:24:46.116Z,18.35
2022-08-24T23:27:13.446Z,18.31
2022-08-24T23:29:40.006Z,18.25
2022-08-24T23:32:07.129Z,18.18
2022-08-24T23:34:34.244Z,18.13
2022-08-24T23:37:00.873Z,18.08
2022-08-24T23:39:27.527Z,18.02
2022-08-24T23:41:54.161Z,17.96
2022-08-24T23:44:22.701Z,17.94
2022-08-24T23:46:49.205Z,17.92
2022-08-24T23:49:17.311Z,17.88
2022-08-24T23:51:43.847Z,17.83
2022-08-24T23:54:10.615Z,17.79
2022-08-24T23:56:37.843Z,17.76
2022-08-24T23:59:06.500Z,17.70
